KVPZ/VPZ METAR and TAF weather

Enter ICAO airport designator
Station Type Date Time Source
KVPZ METAR 2024/04/17 17:56 UTC NOAA

KVPZ 171756Z AUTO 26023G30KT 10SM BKN035 OVC046 17/10 A2969 RMK AO2 PK WND 26032/1657 SLP052 60005 T01670100 10200 20167 53026


Station Type Date Time Source
KVPZ Decoded METAR 2024/04/17 17:56 UTC NOAA

VALPARAISO PORTER CO MUNI, IN, United States (KVPZ) 41-27N 087-00W 231M
Apr 17, 2024 - 01:56 PM EDT / 2024.04.17 1756 UTC
Wind: from the W (260 degrees) at 26 MPH (23 KT) gusting to 35 MPH (30 KT):0
Visibility: 10 mile(s):0
Sky conditions: overcast
Temperature: 62.1 F (16.7 C)
Dew Point: 50.0 F (10.0 C)
Relative Humidity: 64%
Pressure (altimeter): 29.69 in. Hg (1005 hPa)
Pressure tendency: 0.08 inches (2.6 hPa) higher than three hours ago
ob: KVPZ 171756Z AUTO 26023G30KT 10SM BKN035 OVC046 17/10 A2969 RMK AO2 PK WND 26032/1657 SLP052 60005 T01670100 10200 20167 53026
cycle: 18

Station Type Date Time Source
KVPZ TAF UTC NOAA

Error!

Example: see airport list